sensor_id;sensor_type;location;lat;lon;timestamp;P1;P2;P0
73546;PMS7003;61807;48.384;-4.386;2023-07-31T00:01:26;6.50;2.75;1.25
73546;PMS7003;61807;48.384;-4.386;2023-07-31T00:03:51;7.75;4.75;2.75
73546;PMS7003;61807;48.384;-4.386;2023-07-31T00:06:16;2.50;2.50;2.00
73546;PMS7003;61807;48.384;-4.386;2023-07-31T00:08:42;5.25;2.00;1.75
73546;PMS7003;61807;48.384;-4.386;2023-07-31T00:11:07;8.50;3.75;2.00
73546;PMS7003;61807;48.384;-4.386;2023-07-31T00:13:33;2.50;2.50;1.75
73546;PMS7003;61807;48.384;-4.386;2023-07-31T00:15:58;5.25;3.00;2.00
73546;PMS7003;61807;48.384;-4.386;2023-07-31T00:18:24;6.50;2.75;1.75
73546;PMS7003;61807;48.384;-4.386;2023-07-31T00:20:49;6.25;4.00;2.50
73546;PMS7003;61807;48.384;-4.386;2023-07-31T00:23:15;8.25;3.50;2.00
73546;PMS7003;61807;48.384;-4.386;2023-07-31T00:25:41;8.50;4.00;2.00
73546;PMS7003;61807;48.384;-4.386;2023-07-31T00:28:07;3.50;3.00;1.25
73546;PMS7003;61807;48.384;-4.386;2023-07-31T00:30:32;5.50;3.25;2.00
73546;PMS7003;61807;48.384;-4.386;2023-07-31T00:32:57;7.25;4.00;3.00
73546;PMS7003;61807;48.384;-4.386;2023-07-31T00:35:23;8.25;2.50;1.75
73546;PMS7003;61807;48.384;-4.386;2023-07-31T00:37:48;6.50;3.75;2.00
73546;PMS7003;61807;48.384;-4.386;2023-07-31T00:40:14;6.25;4.75;3.00
73546;PMS7003;61807;48.384;-4.386;2023-07-31T00:42:39;5.00;3.75;1.50
73546;PMS7003;61807;48.384;-4.386;2023-07-31T00:45:05;7.25;3.50;3.00
73546;PMS7003;61807;48.384;-4.386;2023-07-31T00:47:30;6.75;3.50;2.00
73546;PMS7003;61807;48.384;-4.386;2023-07-31T00:49:56;5.00;3.25;2.00
73546;PMS7003;61807;48.384;-4.386;2023-07-31T00:52:21;4.25;2.50;1.00
73546;PMS7003;61807;48.384;-4.386;2023-07-31T00:54:47;4.00;3.00;2.00
73546;PMS7003;61807;48.384;-4.386;2023-07-31T00:57:14;8.00;5.00;2.50
73546;PMS7003;61807;48.384;-4.386;2023-07-31T00:59:39;5.75;4.00;1.50
73546;PMS7003;61807;48.384;-4.386;2023-07-31T01:02:04;8.75;2.75;2.00
73546;PMS7003;61807;48.384;-4.386;2023-07-31T01:04:30;5.50;3.00;1.50
73546;PMS7003;61807;48.384;-4.386;2023-07-31T01:12:29;5.75;2.50;2.00
73546;PMS7003;61807;48.384;-4.386;2023-07-31T01:17:31;10.75;4.00;2.25
73546;PMS7003;61807;48.384;-4.386;2023-07-31T01:19:59;7.50;6.25;3.00
73546;PMS7003;61807;48.384;-4.386;2023-07-31T01:28:10;4.00;4.00;2.00
73546;PMS7003;61807;48.384;-4.386;2023-07-31T01:30:43;5.25;3.75;2.75
73546;PMS7003;61807;48.384;-4.386;2023-07-31T01:33:12;4.25;2.00;1.00
73546;PMS7003;61807;48.384;-4.386;2023-07-31T01:35:37;7.25;3.25;2.00
73546;PMS7003;61807;48.384;-4.386;2023-07-31T01:38:05;5.50;2.00;2.00
73546;PMS7003;61807;48.384;-4.386;2023-07-31T01:40:30;8.00;2.75;1.50
73546;PMS7003;61807;48.384;-4.386;2023-07-31T01:42:56;4.50;3.00;1.75
73546;PMS7003;61807;48.384;-4.386;2023-07-31T01:45:21;3.50;3.50;2.00
73546;PMS7003;61807;48.384;-4.386;2023-07-31T01:47:46;7.25;3.00;2.00
73546;PMS7003;61807;48.384;-4.386;2023-07-31T01:50:12;6.00;2.00;2.00
73546;PMS7003;61807;48.384;-4.386;2023-07-31T01:52:37;5.00;2.00;1.50
73546;PMS7003;61807;48.384;-4.386;2023-07-31T01:55:03;8.50;3.00;2.00
73546;PMS7003;61807;48.384;-4.386;2023-07-31T01:57:28;7.75;3.50;2.00
73546;PMS7003;61807;48.384;-4.386;2023-07-31T01:59:54;5.00;2.50;2.00
73546;PMS7003;61807;48.384;-4.386;2023-07-31T02:02:19;6.50;3.75;2.25
73546;PMS7003;61807;48.384;-4.386;2023-07-31T02:04:45;3.50;2.00;2.00
73546;PMS7003;61807;48.384;-4.386;2023-07-31T02:07:11;4.50;3.75;2.00
73546;PMS7003;61807;48.384;-4.386;2023-07-31T02:09:36;9.75;3.25;2.25
73546;PMS7003;61807;48.384;-4.386;2023-07-31T02:12:02;5.75;3.75;2.50
73546;PMS7003;61807;48.384;-4.386;2023-07-31T02:14:27;6.75;3.50;2.25
73546;PMS7003;61807;48.384;-4.386;2023-07-31T02:16:53;3.25;3.00;2.25
73546;PMS7003;61807;48.384;-4.386;2023-07-31T02:19:18;5.75;2.00;1.25
73546;PMS7003;61807;48.384;-4.386;2023-07-31T02:21:44;8.50;2.25;1.25
73546;PMS7003;61807;48.384;-4.386;2023-07-31T02:24:09;3.00;2.50;1.50
73546;PMS7003;61807;48.384;-4.386;2023-07-31T02:26:35;9.75;2.75;1.75
73546;PMS7003;61807;48.384;-4.386;2023-07-31T02:29:00;4.50;2.50;2.00
73546;PMS7003;61807;48.384;-4.386;2023-07-31T02:31:25;8.75;4.00;2.00
73546;PMS7003;61807;48.384;-4.386;2023-07-31T02:33:51;2.75;2.75;2.00
73546;PMS7003;61807;48.384;-4.386;2023-07-31T02:36:16;1.50;1.00;1.00
73546;PMS7003;61807;48.384;-4.386;2023-07-31T02:38:41;3.50;2.50;2.00
73546;PMS7003;61807;48.384;-4.386;2023-07-31T02:41:07;4.00;2.25;2.25
73546;PMS7003;61807;48.384;-4.386;2023-07-31T02:43:32;4.00;2.75;1.50
73546;PMS7003;61807;48.384;-4.386;2023-07-31T02:45:59;4.50;2.75;2.50
73546;PMS7003;61807;48.384;-4.386;2023-07-31T02:48:24;4.25;2.25;1.25
73546;PMS7003;61807;48.384;-4.386;2023-07-31T02:50:50;7.50;3.25;2.00
73546;PMS7003;61807;48.384;-4.386;2023-07-31T02:53:15;6.00;2.75;2.00
73546;PMS7003;61807;48.384;-4.386;2023-07-31T02:55:41;5.00;3.00;2.00
73546;PMS7003;61807;48.384;-4.386;2023-07-31T02:58:06;2.25;2.25;1.75
73546;PMS7003;61807;48.384;-4.386;2023-07-31T03:00:31;7.25;4.25;3.00
73546;PMS7003;61807;48.384;-4.386;2023-07-31T03:02:57;5.00;3.00;2.00
73546;PMS7003;61807;48.384;-4.386;2023-07-31T03:05:22;2.25;2.25;1.25
73546;PMS7003;61807;48.384;-4.386;2023-07-31T03:07:48;3.50;3.50;2.00
73546;PMS7003;61807;48.384;-4.386;2023-07-31T03:10:13;6.25;3.75;2.75
73546;PMS7003;61807;48.384;-4.386;2023-07-31T03:12:39;5.25;2.00;1.50
73546;PMS7003;61807;48.384;-4.386;2023-07-31T03:15:05;4.00;4.00;3.00
73546;PMS7003;61807;48.384;-4.386;2023-07-31T03:17:31;5.00;3.00;2.00
73546;PMS7003;61807;48.384;-4.386;2023-07-31T03:19:56;10.25;4.50;2.50
73546;PMS7003;61807;48.384;-4.386;2023-07-31T03:22:22;2.75;2.00;2.00
73546;PMS7003;61807;48.384;-4.386;2023-07-31T03:24:47;4.50;3.50;2.00
73546;PMS7003;61807;48.384;-4.386;2023-07-31T03:27:12;4.50;4.25;3.00
73546;PMS7003;61807;48.384;-4.386;2023-07-31T03:29:38;4.25;2.75;2.50
73546;PMS7003;61807;48.384;-4.386;2023-07-31T03:32:03;5.00;3.25;2.25
73546;PMS7003;61807;48.384;-4.386;2023-07-31T03:34:29;3.00;2.75;1.75
73546;PMS7003;61807;48.384;-4.386;2023-07-31T03:36:56;3.50;3.25;2.25
73546;PMS7003;61807;48.384;-4.386;2023-07-31T03:39:22;6.75;4.00;2.00
73546;PMS7003;61807;48.384;-4.386;2023-07-31T03:41:47;5.25;3.50;2.25
73546;PMS7003;61807;48.384;-4.386;2023-07-31T03:44:13;4.50;4.50;2.25
73546;PMS7003;61807;48.384;-4.386;2023-07-31T03:46:38;7.50;2.00;1.00
73546;PMS7003;61807;48.384;-4.386;2023-07-31T03:49:03;1.25;1.25;1.00
73546;PMS7003;61807;48.384;-4.386;2023-07-31T03:51:29;4.75;3.00;2.25
73546;PMS7003;61807;48.384;-4.386;2023-07-31T03:53:54;4.25;3.00;2.00
73546;PMS7003;61807;48.384;-4.386;2023-07-31T03:56:20;5.50;3.00;2.00
73546;PMS7003;61807;48.384;-4.386;2023-07-31T03:58:45;4.25;4.00;2.75
73546;PMS7003;61807;48.384;-4.386;2023-07-31T04:01:10;8.75;3.25;3.00
73546;PMS7003;61807;48.384;-4.386;2023-07-31T04:03:36;2.50;2.00;1.25
73546;PMS7003;61807;48.384;-4.386;2023-07-31T04:06:01;7.00;3.00;2.00
73546;PMS7003;61807;48.384;-4.386;2023-07-31T04:08:27;6.75;2.00;1.00
73546;PMS7003;61807;48.384;-4.386;2023-07-31T04:10:52;2.00;2.00;1.25
73546;PMS7003;61807;48.384;-4.386;2023-07-31T04:13:17;7.75;4.00;3.00
73546;PMS7003;61807;48.384;-4.386;2023-07-31T04:15:47;5.00;3.50;2.00
73546;PMS7003;61807;48.384;-4.386;2023-07-31T04:18:13;3.75;2.75;1.25
73546;PMS7003;61807;48.384;-4.386;2023-07-31T04:20:39;7.25;3.50;2.00
73546;PMS7003;61807;48.384;-4.386;2023-07-31T04:23:04;7.00;3.75;2.00
73546;PMS7003;61807;48.384;-4.386;2023-07-31T04:25:29;6.00;3.25;3.00
73546;PMS7003;61807;48.384;-4.386;2023-07-31T04:27:55;2.25;2.25;1.50
73546;PMS7003;61807;48.384;-4.386;2023-07-31T04:30:20;9.00;3.25;2.50
73546;PMS7003;61807;48.384;-4.386;2023-07-31T04:32:46;6.75;4.50;2.75
73546;PMS7003;61807;48.384;-4.386;2023-07-31T04:35:11;8.75;5.25;3.00
73546;PMS7003;61807;48.384;-4.386;2023-07-31T04:37:36;3.00;3.00;2.00
73546;PMS7003;61807;48.384;-4.386;2023-07-31T04:40:03;8.25;2.00;1.50
73546;PMS7003;61807;48.384;-4.386;2023-07-31T04:42:29;5.50;5.50;3.00
73546;PMS7003;61807;48.384;-4.386;2023-07-31T04:44:54;9.75;4.00;3.00
73546;PMS7003;61807;48.384;-4.386;2023-07-31T04:47:19;8.25;3.50;1.75
73546;PMS7003;61807;48.384;-4.386;2023-07-31T04:49:45;3.00;3.00;2.25
73546;PMS7003;61807;48.384;-4.386;2023-07-31T04:52:10;11.00;3.75;3.00
73546;PMS7003;61807;48.384;-4.386;2023-07-31T04:54:36;3.50;3.50;2.00
73546;PMS7003;61807;48.384;-4.386;2023-07-31T04:57:01;5.00;3.75;2.00
73546;PMS7003;61807;48.384;-4.386;2023-07-31T04:59:26;6.25;3.25;2.00
73546;PMS7003;61807;48.384;-4.386;2023-07-31T05:01:52;2.75;2.75;1.75
73546;PMS7003;61807;48.384;-4.386;2023-07-31T05:04:17;8.50;3.75;2.25
73546;PMS7003;61807;48.384;-4.386;2023-07-31T05:06:42;7.00;0.25;0.25
73546;PMS7003;61807;48.384;-4.386;2023-07-31T05:09:08;3.00;1.00;0.00
73546;PMS7003;61807;48.384;-4.386;2023-07-31T05:11:34;7.75;3.00;2.50
73546;PMS7003;61807;48.384;-4.386;2023-07-31T05:14:00;4.75;3.00;2.00
73546;PMS7003;61807;48.384;-4.386;2023-07-31T05:16:25;3.75;3.50;2.00
73546;PMS7003;61807;48.384;-4.386;2023-07-31T05:18:51;7.25;3.75;2.75
73546;PMS7003;61807;48.384;-4.386;2023-07-31T05:21:16;10.00;4.25;2.25
73546;PMS7003;61807;48.384;-4.386;2023-07-31T05:23:41;8.75;2.50;2.00
73546;PMS7003;61807;48.384;-4.386;2023-07-31T05:26:07;5.25;4.25;3.00
73546;PMS7003;61807;48.384;-4.386;2023-07-31T05:28:34;9.75;4.00;2.50
73546;PMS7003;61807;48.384;-4.386;2023-07-31T05:31:01;8.75;4.25;2.50
73546;PMS7003;61807;48.384;-4.386;2023-07-31T05:33:27;8.00;3.50;3.00
73546;PMS7003;61807;48.384;-4.386;2023-07-31T05:35:52;7.25;3.75;2.25
73546;PMS7003;61807;48.384;-4.386;2023-07-31T05:38:18;7.00;4.00;2.50
73546;PMS7003;61807;48.384;-4.386;2023-07-31T05:40:43;5.25;4.00;3.00
73546;PMS7003;61807;48.384;-4.386;2023-07-31T05:43:08;5.00;3.25;2.75
73546;PMS7003;61807;48.384;-4.386;2023-07-31T05:45:34;8.25;3.75;2.50
73546;PMS7003;61807;48.384;-4.386;2023-07-31T05:48:00;6.50;2.75;2.00
73546;PMS7003;61807;48.384;-4.386;2023-07-31T05:50:25;6.25;3.25;2.25
73546;PMS7003;61807;48.384;-4.386;2023-07-31T05:52:51;6.25;4.25;3.00
73546;PMS7003;61807;48.384;-4.386;2023-07-31T05:55:16;5.25;3.25;2.25
73546;PMS7003;61807;48.384;-4.386;2023-07-31T05:57:42;6.25;3.00;2.00
73546;PMS7003;61807;48.384;-4.386;2023-07-31T06:00:07;8.75;3.00;2.00
73546;PMS7003;61807;48.384;-4.386;2023-07-31T06:02:33;4.00;3.25;3.00
73546;PMS7003;61807;48.384;-4.386;2023-07-31T06:05:01;7.25;4.25;2.50
73546;PMS7003;61807;48.384;-4.386;2023-07-31T06:07:29;7.50;3.75;2.25
73546;PMS7003;61807;48.384;-4.386;2023-07-31T06:09:54;8.50;4.00;2.50
73546;PMS7003;61807;48.384;-4.386;2023-07-31T06:12:20;6.25;3.00;2.00
73546;PMS7003;61807;48.384;-4.386;2023-07-31T06:14:46;8.25;3.50;3.00
73546;PMS7003;61807;48.384;-4.386;2023-07-31T06:17:11;8.50;4.00;2.00
73546;PMS7003;61807;48.384;-4.386;2023-07-31T06:19:36;5.00;3.25;2.00
73546;PMS7003;61807;48.384;-4.386;2023-07-31T06:22:02;5.50;3.75;3.00
73546;PMS7003;61807;48.384;-4.386;2023-07-31T06:24:28;4.75;3.00;2.00
73546;PMS7003;61807;48.384;-4.386;2023-07-31T06:26:53;6.25;4.00;2.25
73546;PMS7003;61807;48.384;-4.386;2023-07-31T06:29:19;4.00;3.00;2.00
73546;PMS7003;61807;48.384;-4.386;2023-07-31T06:31:44;6.75;3.25;2.00
73546;PMS7003;61807;48.384;-4.386;2023-07-31T06:34:10;3.75;2.50;2.00
73546;PMS7003;61807;48.384;-4.386;2023-07-31T06:36:35;8.00;2.50;1.75
73546;PMS7003;61807;48.384;-4.386;2023-07-31T06:39:01;5.00;3.75;2.00
73546;PMS7003;61807;48.384;-4.386;2023-07-31T06:41:26;4.25;3.00;2.00
73546;PMS7003;61807;48.384;-4.386;2023-07-31T06:43:51;7.25;2.75;1.50
73546;PMS7003;61807;48.384;-4.386;2023-07-31T06:46:17;3.50;3.00;2.00
73546;PMS7003;61807;48.384;-4.386;2023-07-31T06:48:42;3.25;2.25;2.00
73546;PMS7003;61807;48.384;-4.386;2023-07-31T06:51:08;2.25;1.75;1.00
73546;PMS7003;61807;48.384;-4.386;2023-07-31T06:53:33;8.00;4.75;2.75
73546;PMS7003;61807;48.384;-4.386;2023-07-31T06:55:58;4.00;2.00;1.00
73546;PMS7003;61807;48.384;-4.386;2023-07-31T06:58:24;2.25;2.25;2.00
73546;PMS7003;61807;48.384;-4.386;2023-07-31T07:00:49;4.25;2.00;0.75
73546;PMS7003;61807;48.384;-4.386;2023-07-31T07:03:17;3.50;3.00;2.00
73546;PMS7003;61807;48.384;-4.386;2023-07-31T07:05:43;6.50;2.50;2.00
73546;PMS7003;61807;48.384;-4.386;2023-07-31T07:08:09;2.75;2.00;1.00
73546;PMS7003;61807;48.384;-4.386;2023-07-31T07:10:34;2.00;2.00;1.00
73546;PMS7003;61807;48.384;-4.386;2023-07-31T07:12:59;2.00;2.00;1.00
73546;PMS7003;61807;48.384;-4.386;2023-07-31T07:15:25;3.00;1.75;1.00
73546;PMS7003;61807;48.384;-4.386;2023-07-31T07:17:50;2.00;1.00;0.00
73546;PMS7003;61807;48.384;-4.386;2023-07-31T07:20:15;2.75;1.00;1.00
73546;PMS7003;61807;48.384;-4.386;2023-07-31T07:22:41;2.00;0.75;0.00
73546;PMS7003;61807;48.384;-4.386;2023-07-31T07:25:09;1.00;1.00;1.00
73546;PMS7003;61807;48.384;-4.386;2023-07-31T07:27:35;1.00;1.00;0.50
73546;PMS7003;61807;48.384;-4.386;2023-07-31T07:30:00;1.00;1.00;1.00
73546;PMS7003;61807;48.384;-4.386;2023-07-31T07:32:26;1.00;1.00;0.00
73546;PMS7003;61807;48.384;-4.386;2023-07-31T07:34:51;2.75;1.00;1.00
73546;PMS7003;61807;48.384;-4.386;2023-07-31T07:37:17;0.25;0.00;0.00
73546;PMS7003;61807;48.384;-4.386;2023-07-31T07:39:42;4.50;0.75;0.00
73546;PMS7003;61807;48.384;-4.386;2023-07-31T07:42:08;4.25;1.00;0.00
73546;PMS7003;61807;48.384;-4.386;2023-07-31T07:44:33;0.75;0.75;0.50
73546;PMS7003;61807;48.384;-4.386;2023-07-31T07:46:58;3.00;0.75;0.75
73546;PMS7003;61807;48.384;-4.386;2023-07-31T07:49:24;1.25;1.00;0.75
73546;PMS7003;61807;48.384;-4.386;2023-07-31T07:51:49;2.50;1.00;0.50
73546;PMS7003;61807;48.384;-4.386;2023-07-31T07:54:15;1.50;0.75;0.00
73546;PMS7003;61807;48.384;-4.386;2023-07-31T07:56:42;2.50;1.00;0.25
73546;PMS7003;61807;48.384;-4.386;2023-07-31T07:59:07;3.00;2.25;1.00
73546;PMS7003;61807;48.384;-4.386;2023-07-31T08:01:32;1.00;0.00;0.00
73546;PMS7003;61807;48.384;-4.386;2023-07-31T08:03:58;2.50;1.00;0.75
73546;PMS7003;61807;48.384;-4.386;2023-07-31T08:06:23;3.50;1.75;1.00
73546;PMS7003;61807;48.384;-4.386;2023-07-31T08:08:49;2.25;2.00;1.00
73546;PMS7003;61807;48.384;-4.386;2023-07-31T08:11:15;4.00;1.00;1.00
73546;PMS7003;61807;48.384;-4.386;2023-07-31T08:13:40;1.75;1.00;0.50
73546;PMS7003;61807;48.384;-4.386;2023-07-31T08:16:05;2.25;1.00;1.00
73546;PMS7003;61807;48.384;-4.386;2023-07-31T08:18:31;3.50;1.00;1.00
73546;PMS7003;61807;48.384;-4.386;2023-07-31T08:20:57;5.00;1.00;0.25
73546;PMS7003;61807;48.384;-4.386;2023-07-31T08:23:23;5.25;1.75;1.00
73546;PMS7003;61807;48.384;-4.386;2023-07-31T08:25:48;2.25;0.75;0.50
73546;PMS7003;61807;48.384;-4.386;2023-07-31T08:28:15;2.25;1.00;1.00
73546;PMS7003;61807;48.384;-4.386;2023-07-31T08:30:41;2.25;1.00;1.00
73546;PMS7003;61807;48.384;-4.386;2023-07-31T08:33:07;3.50;1.00;0.00
73546;PMS7003;61807;48.384;-4.386;2023-07-31T08:35:32;1.75;1.75;1.25
73546;PMS7003;61807;48.384;-4.386;2023-07-31T08:37:58;4.00;1.00;0.50
73546;PMS7003;61807;48.384;-4.386;2023-07-31T08:40:23;3.75;1.75;1.00
73546;PMS7003;61807;48.384;-4.386;2023-07-31T08:42:50;2.00;1.00;1.00
73546;PMS7003;61807;48.384;-4.386;2023-07-31T08:45:17;2.75;1.25;1.00
73546;PMS7003;61807;48.384;-4.386;2023-07-31T08:47:45;2.75;2.00;1.00
73546;PMS7003;61807;48.384;-4.386;2023-07-31T08:50:12;3.75;1.00;1.00
73546;PMS7003;61807;48.384;-4.386;2023-07-31T08:52:38;2.25;2.25;1.50
73546;PMS7003;61807;48.384;-4.386;2023-07-31T08:55:04;2.50;1.25;1.00
73546;PMS7003;61807;48.384;-4.386;2023-07-31T08:57:30;2.25;1.00;1.00
73546;PMS7003;61807;48.384;-4.386;2023-07-31T08:59:56;2.00;1.00;0.50
73546;PMS7003;61807;48.384;-4.386;2023-07-31T09:02:22;4.50;2.00;1.00
73546;PMS7003;61807;48.384;-4.386;2023-07-31T09:04:56;2.75;1.00;1.00
73546;PMS7003;61807;48.384;-4.386;2023-07-31T09:07:22;0.50;0.00;0.00
73546;PMS7003;61807;48.384;-4.386;2023-07-31T09:09:49;1.00;0.50;0.00
73546;PMS7003;61807;48.384;-4.386;2023-07-31T09:12:14;3.00;2.25;1.00
73546;PMS7003;61807;48.384;-4.386;2023-07-31T09:14:40;1.00;1.00;0.00
73546;PMS7003;61807;48.384;-4.386;2023-07-31T09:17:07;2.00;0.75;0.00
73546;PMS7003;61807;48.384;-4.386;2023-07-31T09:19:33;0.25;0.25;0.25
73546;PMS7003;61807;48.384;-4.386;2023-07-31T09:22:02;1.00;0.00;0.00
73546;PMS7003;61807;48.384;-4.386;2023-07-31T09:24:28;0.75;0.75;0.00
73546;PMS7003;61807;48.384;-4.386;2023-07-31T09:26:55;1.25;1.25;1.00
73546;PMS7003;61807;48.384;-4.386;2023-07-31T09:29:23;3.00;1.00;1.00
73546;PMS7003;61807;48.384;-4.386;2023-07-31T09:31:49;4.00;1.75;0.75
73546;PMS7003;61807;48.384;-4.386;2023-07-31T09:34:15;3.50;3.50;2.00
73546;PMS7003;61807;48.384;-4.386;2023-07-31T09:39:08;3.00;1.00;1.00
73546;PMS7003;61807;48.384;-4.386;2023-07-31T09:41:43;1.50;1.50;1.00
73546;PMS7003;61807;48.384;-4.386;2023-07-31T09:44:11;3.50;3.25;1.00
73546;PMS7003;61807;48.384;-4.386;2023-07-31T09:46:37;2.50;1.00;0.50
73546;PMS7003;61807;48.384;-4.386;2023-07-31T09:49:12;2.75;1.00;1.00
73546;PMS7003;61807;48.384;-4.386;2023-07-31T09:51:39;1.50;1.50;1.00
73546;PMS7003;61807;48.384;-4.386;2023-07-31T09:54:09;1.00;1.00;1.00
73546;PMS7003;61807;48.384;-4.386;2023-07-31T09:56:36;2.25;1.00;0.50
73546;PMS7003;61807;48.384;-4.386;2023-07-31T09:59:03;1.00;1.00;0.75
73546;PMS7003;61807;48.384;-4.386;2023-07-31T10:01:30;3.00;2.00;1.00
73546;PMS7003;61807;48.384;-4.386;2023-07-31T10:03:56;2.25;1.75;1.00
73546;PMS7003;61807;48.384;-4.386;2023-07-31T10:06:23;6.25;1.50;1.00
73546;PMS7003;61807;48.384;-4.386;2023-07-31T10:08:50;3.00;1.25;1.00
73546;PMS7003;61807;48.384;-4.386;2023-07-31T10:11:17;2.00;1.75;1.00
73546;PMS7003;61807;48.384;-4.386;2023-07-31T10:13:44;4.25;1.50;1.25
73546;PMS7003;61807;48.384;-4.386;2023-07-31T10:16:10;5.00;2.25;1.00
73546;PMS7003;61807;48.384;-4.386;2023-07-31T10:18:37;3.00;2.25;2.00
73546;PMS7003;61807;48.384;-4.386;2023-07-31T10:21:04;2.75;1.50;1.00
73546;PMS7003;61807;48.384;-4.386;2023-07-31T10:23:31;3.50;2.25;1.00
73546;PMS7003;61807;48.384;-4.386;2023-07-31T10:25:56;2.00;2.00;1.00
73546;PMS7003;61807;48.384;-4.386;2023-07-31T10:28:23;3.00;3.00;2.00
73546;PMS7003;61807;48.384;-4.386;2023-07-31T10:30:50;2.00;2.00;2.00
73546;PMS7003;61807;48.384;-4.386;2023-07-31T10:33:17;3.75;2.00;1.00
73546;PMS7003;61807;48.384;-4.386;2023-07-31T10:35:44;4.50;2.00;1.00
73546;PMS7003;61807;48.384;-4.386;2023-07-31T10:38:11;2.25;2.25;1.50
73546;PMS7003;61807;48.384;-4.386;2023-07-31T10:40:37;1.75;1.75;1.00
73546;PMS7003;61807;48.384;-4.386;2023-07-31T10:43:03;3.50;1.50;1.25
73546;PMS7003;61807;48.384;-4.386;2023-07-31T10:45:34;4.75;2.00;1.00
73546;PMS7003;61807;48.384;-4.386;2023-07-31T10:48:02;4.00;3.00;1.50
73546;PMS7003;61807;48.384;-4.386;2023-07-31T10:50:32;1.25;1.25;1.00
73546;PMS7003;61807;48.384;-4.386;2023-07-31T10:53:02;3.00;1.75;1.00
73546;PMS7003;61807;48.384;-4.386;2023-07-31T10:57:57;2.00;1.25;1.00
73546;PMS7003;61807;48.384;-4.386;2023-07-31T11:00:31;2.50;2.25;1.00
73546;PMS7003;61807;48.384;-4.386;2023-07-31T11:05:45;3.00;0.75;0.75
73546;PMS7003;61807;48.384;-4.386;2023-07-31T11:08:18;3.00;2.00;1.00
73546;PMS7003;61807;48.384;-4.386;2023-07-31T11:10:47;2.25;1.25;1.00
73546;PMS7003;61807;48.384;-4.386;2023-07-31T11:13:14;1.25;1.00;1.00
73546;PMS7003;61807;48.384;-4.386;2023-07-31T11:15:40;1.00;1.00;1.00
73546;PMS7003;61807;48.384;-4.386;2023-07-31T11:18:05;2.00;2.00;1.00
73546;PMS7003;61807;48.384;-4.386;2023-07-31T11:20:33;3.50;1.25;1.00
73546;PMS7003;61807;48.384;-4.386;2023-07-31T11:23:02;2.50;1.00;1.00
73546;PMS7003;61807;48.384;-4.386;2023-07-31T11:25:33;2.25;1.00;0.50
73546;PMS7003;61807;48.384;-4.386;2023-07-31T11:28:05;1.00;1.00;0.25
73546;PMS7003;61807;48.384;-4.386;2023-07-31T11:30:33;1.75;0.00;0.00
73546;PMS7003;61807;48.384;-4.386;2023-07-31T11:33:04;0.00;0.00;0.00
73546;PMS7003;61807;48.384;-4.386;2023-07-31T11:35:35;0.00;0.00;0.00
73546;PMS7003;61807;48.384;-4.386;2023-07-31T11:38:01;2.00;0.00;0.00
73546;PMS7003;61807;48.384;-4.386;2023-07-31T11:40:28;1.75;0.00;0.00
73546;PMS7003;61807;48.384;-4.386;2023-07-31T11:43:04;0.00;0.00;0.00
73546;PMS7003;61807;48.384;-4.386;2023-07-31T11:45:29;1.00;0.00;0.00
73546;PMS7003;61807;48.384;-4.386;2023-07-31T11:47:55;0.00;0.00;0.00
73546;PMS7003;61807;48.384;-4.386;2023-07-31T11:50:21;1.00;0.00;0.00
73546;PMS7003;61807;48.384;-4.386;2023-07-31T11:52:50;1.75;0.00;0.00
73546;PMS7003;61807;48.384;-4.386;2023-07-31T11:55:19;0.00;0.00;0.00
73546;PMS7003;61807;48.384;-4.386;2023-07-31T11:57:45;0.00;0.00;0.00
73546;PMS7003;61807;48.384;-4.386;2023-07-31T12:00:11;0.00;0.00;0.00
73546;PMS7003;61807;48.384;-4.386;2023-07-31T12:02:39;0.75;0.00;0.00
73546;PMS7003;61807;48.384;-4.386;2023-07-31T12:05:05;0.50;0.00;0.00
73546;PMS7003;61807;48.384;-4.386;2023-07-31T12:07:54;1.00;0.00;0.00
73546;PMS7003;61807;48.384;-4.386;2023-07-31T12:10:24;0.00;0.00;0.00
73546;PMS7003;61807;48.384;-4.386;2023-07-31T12:12:56;0.75;0.00;0.00
73546;PMS7003;61807;48.384;-4.386;2023-07-31T12:15:34;1.00;0.00;0.00
73546;PMS7003;61807;48.384;-4.386;2023-07-31T12:18:11;0.00;0.00;0.00
73546;PMS7003;61807;48.384;-4.386;2023-07-31T12:20:47;0.75;0.00;0.00
73546;PMS7003;61807;48.384;-4.386;2023-07-31T12:23:15;0.00;0.00;0.00
73546;PMS7003;61807;48.384;-4.386;2023-07-31T12:26:08;0.00;0.00;0.00
73546;PMS7003;61807;48.384;-4.386;2023-07-31T12:28:43;0.00;0.00;0.00
73546;PMS7003;61807;48.384;-4.386;2023-07-31T12:31:10;1.50;0.00;0.00
73546;PMS7003;61807;48.384;-4.386;2023-07-31T12:33:38;1.00;0.00;0.00
73546;PMS7003;61807;48.384;-4.386;2023-07-31T12:36:07;0.00;0.00;0.00
73546;PMS7003;61807;48.384;-4.386;2023-07-31T12:38:34;1.00;0.25;0.00
73546;PMS7003;61807;48.384;-4.386;2023-07-31T12:40:59;1.00;0.00;0.00
73546;PMS7003;61807;48.384;-4.386;2023-07-31T12:43:25;0.00;0.00;0.00
73546;PMS7003;61807;48.384;-4.386;2023-07-31T12:45:50;0.50;0.50;0.50
73546;PMS7003;61807;48.384;-4.386;2023-07-31T12:48:16;0.25;0.25;0.00
73546;PMS7003;61807;48.384;-4.386;2023-07-31T12:50:41;2.50;1.00;0.75
73546;PMS7003;61807;48.384;-4.386;2023-07-31T12:53:07;1.25;1.00;1.00
73546;PMS7003;61807;48.384;-4.386;2023-07-31T12:55:32;2.00;2.00;1.00
73546;PMS7003;61807;48.384;-4.386;2023-07-31T12:57:59;7.25;1.75;1.00
73546;PMS7003;61807;48.384;-4.386;2023-07-31T13:00:28;2.25;2.00;1.00
73546;PMS7003;61807;48.384;-4.386;2023-07-31T13:02:54;1.50;1.00;1.00
73546;PMS7003;61807;48.384;-4.386;2023-07-31T13:05:20;3.25;1.50;1.25
73546;PMS7003;61807;48.384;-4.386;2023-07-31T13:07:46;2.75;1.25;1.00
73546;PMS7003;61807;48.384;-4.386;2023-07-31T13:10:12;3.75;1.00;0.75
73546;PMS7003;61807;48.384;-4.386;2023-07-31T13:12:37;3.00;2.00;1.50
73546;PMS7003;61807;48.384;-4.386;2023-07-31T13:15:06;2.25;1.50;1.00
73546;PMS7003;61807;48.384;-4.386;2023-07-31T13:17:32;3.00;2.00;1.00
73546;PMS7003;61807;48.384;-4.386;2023-07-31T13:19:57;12.25;8.75;5.00
73546;PMS7003;61807;48.384;-4.386;2023-07-31T13:22:23;2.25;2.25;1.25
73546;PMS7003;61807;48.384;-4.386;2023-07-31T13:24:49;2.00;1.00;0.50
73546;PMS7003;61807;48.384;-4.386;2023-07-31T13:27:14;4.50;1.25;1.00
73546;PMS7003;61807;48.384;-4.386;2023-07-31T13:29:49;2.50;2.50;1.50
73546;PMS7003;61807;48.384;-4.386;2023-07-31T13:32:16;4.25;2.50;1.00
73546;PMS7003;61807;48.384;-4.386;2023-07-31T13:34:42;3.50;3.00;2.00
73546;PMS7003;61807;48.384;-4.386;2023-07-31T13:37:07;5.00;3.75;2.75
73546;PMS7003;61807;48.384;-4.386;2023-07-31T13:39:33;7.00;2.50;2.00
73546;PMS7003;61807;48.384;-4.386;2023-07-31T13:41:59;4.00;3.75;2.00
73546;PMS7003;61807;48.384;-4.386;2023-07-31T13:44:24;10.50;4.00;2.00
73546;PMS7003;61807;48.384;-4.386;2023-07-31T13:46:50;5.50;5.25;2.75
73546;PMS7003;61807;48.384;-4.386;2023-07-31T13:49:16;9.25;5.50;4.25
73546;PMS7003;61807;48.384;-4.386;2023-07-31T13:51:41;8.25;6.75;4.00
73546;PMS7003;61807;48.384;-4.386;2023-07-31T13:54:06;9.50;7.75;4.00
73546;PMS7003;61807;48.384;-4.386;2023-07-31T13:56:32;8.50;5.75;4.00
73546;PMS7003;61807;48.384;-4.386;2023-07-31T13:58:58;10.50;7.25;4.25
73546;PMS7003;61807;48.384;-4.386;2023-07-31T14:01:23;9.50;6.25;4.00
73546;PMS7003;61807;48.384;-4.386;2023-07-31T14:03:49;8.75;4.75;3.75
73546;PMS7003;61807;48.384;-4.386;2023-07-31T14:06:14;12.00;4.25;3.00
73546;PMS7003;61807;48.384;-4.386;2023-07-31T14:08:40;8.75;5.25;3.00
73546;PMS7003;61807;48.384;-4.386;2023-07-31T14:11:05;7.00;4.75;3.00
73546;PMS7003;61807;48.384;-4.386;2023-07-31T14:13:30;12.00;5.50;4.00
73546;PMS7003;61807;48.384;-4.386;2023-07-31T14:15:56;14.50;7.25;4.00
73546;PMS7003;61807;48.384;-4.386;2023-07-31T14:18:21;12.00;5.75;3.00
73546;PMS7003;61807;48.384;-4.386;2023-07-31T14:20:47;5.00;3.75;3.00
73546;PMS7003;61807;48.384;-4.386;2023-07-31T14:23:12;8.00;4.50;3.00
73546;PMS7003;61807;48.384;-4.386;2023-07-31T14:25:38;7.75;4.25;3.00